Time;durP1;ratioP1;P1;durP2;ratioP2;P2;SDS_P1;SDS_P2;PMS_P1;PMS_P2;Temp;Humidity;BMP_temperature;BMP_pressure;BME280_temperature;BME280_humidity;BME280_pressure;Samples;Min_cycle;Max_cycle;Signal;HPM_P1;HPM_P2
2022/09/23 00:00:59;;;;;;;7.93;5.78;;;11.40;99.90;;;;;;5093182;27;38320;-58
2022/09/23 00:03:27;;;;;;;;;;;11.30;99.90;;;;;;5094668;27;38519;-61
2022/09/23 00:05:58;;;;;;;9.57;6.28;;;11.40;99.90;;;;;;5094884;27;37328;-59
2022/09/23 00:08:25;;;;;;;11.43;6.40;;;11.30;99.90;;;;;;5094608;27;36903;-58
2022/09/23 00:10:54;;;;;;;10.48;6.38;;;11.30;99.90;;;;;;5095271;27;36276;-59
2022/09/23 00:13:22;;;;;;;9.27;6.60;;;11.30;99.90;;;;;;5094198;27;37492;-59
2022/09/23 00:15:51;;;;;;;13.57;7.80;;;11.30;99.90;;;;;;5094567;27;38547;-59
2022/09/23 00:18:19;;;;;;;9.85;6.90;;;11.20;99.90;;;;;;5094644;27;35353;-59
2022/09/23 00:20:46;;;;;;;9.98;6.35;;;11.20;99.90;;;;;;5095091;27;37280;-59
2022/09/23 00:23:14;;;;;;;7.80;6.38;;;11.20;99.90;;;;;;5094169;27;38483;-58
2022/09/23 00:25:41;;;;;;;9.10;6.43;;;11.20;99.90;;;;;;5094396;27;37597;-59
2022/09/23 00:28:08;;;;;;;10.88;6.35;;;11.20;99.90;;;;;;5093260;27;36479;-58
2022/09/23 00:30:36;;;;;;;9.13;6.47;;;11.20;99.90;;;;;;5092474;27;38222;-59
2022/09/23 00:33:04;;;;;;;9.25;6.80;;;11.10;99.90;;;;;;5094650;27;36518;-59
2022/09/23 00:35:31;;;;;;;9.82;6.80;;;11.10;99.90;;;;;;5093659;27;36207;-58
2022/09/23 00:37:59;;;;;;;9.88;7.25;;;11.10;99.90;;;;;;5094509;27;36995;-59
2022/09/23 00:40:26;;;;;;;8.63;7.15;;;11.10;99.90;;;;;;5094001;27;37622;-58
2022/09/23 00:42:53;;;;;;;9.80;6.95;;;11.10;99.90;;;;;;5093129;27;37066;-58
2022/09/23 00:45:21;;;;;;;10.60;6.82;;;11.20;99.90;;;;;;5094394;27;37245;-58
2022/09/23 00:47:52;;;;;;;11.68;6.80;;;11.10;99.90;;;;;;5108492;27;36452;-59
2022/09/23 00:50:26;;;;;;;12.07;7.20;;;11.10;99.90;;;;;;5115840;27;20193;-59
2022/09/23 00:52:56;;;;;;;12.45;7.53;;;11.10;99.90;;;;;;5115723;27;36221;-58
2022/09/23 00:55:27;;;;;;;9.85;7.03;;;11.10;99.90;;;;;;5115801;27;37534;-58
2022/09/23 00:57:58;;;;;;;14.20;8.02;;;11.10;99.90;;;;;;5112738;27;36633;-59
2022/09/23 01:00:26;;;;;;;12.15;7.75;;;11.10;99.90;;;;;;5113380;27;38037;-59
2022/09/23 01:02:53;;;;;;;10.02;7.07;;;11.20;99.90;;;;;;5114936;27;38345;-58
2022/09/23 01:05:23;;;;;;;13.25;7.68;;;11.10;99.90;;;;;;5114386;27;37396;-59
2022/09/23 01:07:51;;;;;;;11.10;7.57;;;11.20;99.90;;;;;;5114638;27;35190;-59
2022/09/23 01:10:18;;;;;;;10.40;6.95;;;11.10;99.90;;;;;;5114158;27;38424;-58
2022/09/23 01:13:01;;;;;;;9.45;7.20;;;11.10;99.90;;;;;;5113177;27;38006;-58
2022/09/23 01:15:38;;;;;;;11.48;7.28;;;11.10;99.90;;;;;;5115023;27;37454;-59
2022/09/23 01:18:15;;;;;;;11.43;8.15;;;11.10;99.90;;;;;;5114485;27;35335;-59
2022/09/23 01:20:58;;;;;;;12.55;8.00;;;11.10;99.90;;;;;;5114303;27;37706;-58
2022/09/23 01:24:01;;;;;;;9.88;7.22;;;11.10;99.90;;;;;;5113962;27;37668;-58
2022/09/23 01:27:03;;;;;;;13.82;7.88;;;11.10;99.90;;;;;;5113167;27;36089;-59
2022/09/23 01:30:02;;;;;;;10.55;6.82;;;11.00;99.90;;;;;;5090706;27;35395;-59
2022/09/23 01:32:44;;;;;;;16.48;8.90;;;11.00;99.90;;;;;;5114467;27;36335;-59
2022/09/23 01:35:23;;;;;;;9.57;7.25;;;11.00;99.90;;;;;;5114144;27;37808;-58
2022/09/23 01:37:59;;;;;;;13.35;7.93;;;11.00;99.90;;;;;;5114558;27;36262;-58
2022/09/23 01:40:36;;;;;;;9.30;7.97;;;11.00;99.90;;;;;;5112539;27;37576;-58
2022/09/23 01:43:06;;;;;;;10.85;7.45;;;11.00;99.90;;;;;;5118071;27;37453;-59
2022/09/23 01:45:40;;;;;;;11.90;8.02;;;11.00;99.90;;;;;;5117606;27;37776;-59
2022/09/23 01:48:12;;;;;;;;;;;10.90;99.90;;;;;;5117737;27;38069;-59
2022/09/23 01:50:57;;;;;;;11.00;7.63;;;10.90;99.90;;;;;;5117648;27;36759;-59
2022/09/23 01:53:32;;;;;;;10.73;8.13;;;10.80;99.90;;;;;;5117502;27;37673;-59
2022/09/23 01:56:04;;;;;;;12.68;8.77;;;10.90;99.90;;;;;;5116832;27;37580;-59
2022/09/23 01:58:38;;;;;;;15.05;9.52;;;10.80;99.90;;;;;;5118137;27;38079;-59
2022/09/23 02:01:07;;;;;;;12.85;9.10;;;10.80;99.90;;;;;;5117705;27;36503;-59
2022/09/23 02:03:43;;;;;;;12.43;8.18;;;10.80;99.90;;;;;;5117055;27;37546;-58
2022/09/23 02:06:16;;;;;;;12.13;7.82;;;10.80;99.90;;;;;;5117117;27;36810;-58
2022/09/23 02:08:47;;;;;;;12.17;7.93;;;10.80;99.90;;;;;;5116716;27;38165;-58
2022/09/23 02:11:16;;;;;;;13.10;8.43;;;10.80;99.90;;;;;;5116599;27;37564;-59
2022/09/23 02:13:50;;;;;;;11.95;7.88;;;10.80;99.90;;;;;;5117372;27;37517;-59
2022/09/23 02:16:26;;;;;;;11.30;7.88;;;10.80;99.90;;;;;;5116737;27;38564;-59
2022/09/23 02:18:59;;;;;;;12.00;8.45;;;10.80;99.90;;;;;;5116905;27;38149;-58
2022/09/23 02:21:32;;;;;;;13.07;7.45;;;10.80;99.90;;;;;;5117265;27;36858;-58
2022/09/23 02:24:07;;;;;;;12.90;8.25;;;10.80;99.90;;;;;;5117181;27;37609;-58
2022/09/23 02:26:40;;;;;;;12.20;7.85;;;10.80;99.90;;;;;;5117415;27;36537;-59
2022/09/23 02:29:18;;;;;;;18.55;9.75;;;10.70;99.90;;;;;;5116918;27;37870;-57
2022/09/23 02:31:54;;;;;;;11.32;8.00;;;10.70;99.90;;;;;;5115864;27;36777;-58
2022/09/23 02:34:32;;;;;;;13.38;8.50;;;10.70;99.90;;;;;;5116769;27;38237;-59
2022/09/23 02:37:10;;;;;;;10.70;8.10;;;10.70;99.90;;;;;;5117213;27;36516;-58
2022/09/23 02:39:50;;;;;;;11.45;8.23;;;10.70;99.90;;;;;;5115865;27;37935;-59
2022/09/23 02:42:23;;;;;;;13.75;8.77;;;10.70;99.90;;;;;;5117499;27;36444;-59
2022/09/23 02:44:51;;;;;;;14.07;8.50;;;10.70;99.90;;;;;;5116571;27;38411;-58
2022/09/23 02:47:24;;;;;;;13.10;8.35;;;10.70;99.90;;;;;;5116365;27;38223;-58
2022/09/23 02:49:55;;;;;;;10.93;7.72;;;10.60;99.90;;;;;;5116273;27;36157;-58
2022/09/23 02:52:23;;;;;;;13.48;8.27;;;10.70;99.90;;;;;;5116300;27;36528;-58
2022/09/23 02:54:52;;;;;;;13.35;9.40;;;10.60;99.90;;;;;;5116200;27;38634;-59
2022/09/23 02:57:20;;;;;;;14.25;9.20;;;10.60;99.90;;;;;;5115926;27;37878;-58
2022/09/23 02:59:49;;;;;;;12.38;9.07;;;10.70;99.90;;;;;;5116423;27;38625;-58
2022/09/23 03:02:42;;;;;;;11.57;7.90;;;10.60;99.90;;;;;;5116490;27;36558;-59
2022/09/23 03:05:22;;;;;;;12.40;8.90;;;10.60;99.90;;;;;;5116450;27;39085;-59
2022/09/23 03:08:01;;;;;;;13.40;8.48;;;10.60;99.90;;;;;;5115530;27;37967;-59
2022/09/23 03:10:35;;;;;;;12.15;8.68;;;10.60;99.90;;;;;;5115822;27;38396;-59
2022/09/23 03:13:12;;;;;;;10.93;8.57;;;10.50;99.90;;;;;;5116951;27;36506;-58
2022/09/23 03:15:56;;;;;;;11.38;7.70;;;10.50;99.90;;;;;;5116172;27;36451;-58
2022/09/23 03:18:30;;;;;;;11.43;8.55;;;10.40;99.90;;;;;;5115865;27;40460;-58
2022/09/23 03:21:03;;;;;;;13.20;9.07;;;10.40;99.90;;;;;;5116416;27;37925;-59
2022/09/23 03:23:35;;;;;;;10.93;8.13;;;10.40;99.90;;;;;;5116496;27;36699;-59
2022/09/23 03:26:09;;;;;;;13.52;8.70;;;10.40;99.90;;;;;;5116337;27;38363;-58
2022/09/23 03:28:37;;;;;;;12.10;8.13;;;10.40;99.90;;;;;;5116462;27;39843;-59
2022/09/23 03:31:06;;;;;;;11.52;8.32;;;10.40;99.90;;;;;;5116173;27;37387;-59
2022/09/23 03:33:36;;;;;;;11.77;8.25;;;10.40;99.90;;;;;;5116582;27;36069;-59
2022/09/23 03:38:59;;;;;;;11.20;7.68;;;10.40;99.90;;;;;;5116515;27;39209;-59
2022/09/23 03:41:31;;;;;;;11.82;8.43;;;10.30;99.90;;;;;;5114932;27;37803;-58
2022/09/23 03:43:59;;;;;;;11.13;8.65;;;10.30;99.90;;;;;;5115721;27;37304;-58
2022/09/23 03:46:27;;;;;;;10.32;8.63;;;10.30;99.90;;;;;;5114138;27;37409;-59
2022/09/23 03:48:59;;;;;;;11.10;8.07;;;10.30;99.90;;;;;;5116706;27;38663;-59
2022/09/23 03:51:28;;;;;;;13.55;8.60;;;10.30;99.90;;;;;;5115865;27;37728;-59
2022/09/23 03:53:55;;;;;;;13.20;7.85;;;10.30;99.90;;;;;;5116084;27;37200;-59
2022/09/23 03:56:22;;;;;;;13.82;8.43;;;10.20;99.90;;;;;;5115960;27;36386;-59
2022/09/23 03:58:50;;;;;;;10.60;8.18;;;10.30;99.90;;;;;;5114878;27;39293;-59
2022/09/23 04:01:17;;;;;;;12.77;8.68;;;10.20;99.90;;;;;;5115890;27;38458;-59
2022/09/23 04:03:44;;;;;;;12.95;8.18;;;10.20;99.90;;;;;;5115792;27;37188;-58
2022/09/23 04:06:11;;;;;;;12.80;8.60;;;10.20;99.90;;;;;;5114412;27;37688;-59
2022/09/23 04:08:40;;;;;;;11.20;7.78;;;10.20;99.90;;;;;;5115479;27;36488;-58
2022/09/23 04:11:08;;;;;;;12.10;8.73;;;10.20;99.90;;;;;;5115324;27;38049;-58
2022/09/23 04:13:35;;;;;;;9.80;7.40;;;10.10;99.90;;;;;;5114128;27;36306;-59
2022/09/23 04:16:02;;;;;;;13.15;8.18;;;10.10;99.90;;;;;;5115835;27;37686;-59
2022/09/23 04:18:30;;;;;;;12.93;9.68;;;10.10;99.90;;;;;;5115702;27;36553;-58
2022/09/23 04:20:59;;;;;;;10.57;8.90;;;10.10;99.90;;;;;;5115330;27;37394;-58
2022/09/23 04:23:27;;;;;;;12.52;9.20;;;10.00;99.90;;;;;;5114889;27;36312;-59
2022/09/23 04:25:55;;;;;;;13.93;8.75;;;10.10;99.90;;;;;;5114133;27;37544;-59
2022/09/23 04:28:23;;;;;;;11.23;9.20;;;10.10;99.90;;;;;;5115226;27;38443;-58
2022/09/23 04:30:51;;;;;;;12.15;8.63;;;10.00;99.90;;;;;;5115467;27;39053;-58
2022/09/23 04:33:18;;;;;;;12.55;8.57;;;10.10;99.90;;;;;;5114720;27;36470;-58
2022/09/23 04:35:50;;;;;;;11.02;8.50;;;10.10;99.90;;;;;;5114116;27;38200;-59
2022/09/23 04:38:18;;;;;;;11.77;9.15;;;10.10;99.90;;;;;;5115443;27;37644;-59
2022/09/23 04:40:45;;;;;;;13.18;9.38;;;10.20;99.90;;;;;;5115014;27;37586;-59
2022/09/23 04:43:15;;;;;;;13.75;10.38;;;10.20;99.90;;;;;;5115613;27;36716;-59
2022/09/23 04:45:42;;;;;;;12.60;9.13;;;10.20;99.90;;;;;;5114970;27;38538;-59
2022/09/23 04:48:10;;;;;;;12.75;9.40;;;10.20;99.90;;;;;;5114579;27;38398;-59
2022/09/23 04:50:38;;;;;;;11.25;8.68;;;10.20;99.90;;;;;;5114493;27;37302;-58
2022/09/23 04:53:05;;;;;;;12.82;9.85;;;10.20;99.90;;;;;;5114909;27;36719;-58
2022/09/23 04:55:33;;;;;;;10.90;8.73;;;10.20;99.90;;;;;;5114651;27;37669;-58
2022/09/23 04:58:00;;;;;;;11.73;9.18;;;10.20;99.90;;;;;;5114782;27;37706;-59
2022/09/23 05:00:29;;;;;;;14.07;9.35;;;10.20;99.90;;;;;;5114649;27;36165;-59
2022/09/23 05:02:56;;;;;;;12.20;9.20;;;10.20;99.90;;;;;;5113586;27;35276;-58
2022/09/23 05:05:23;;;;;;;13.50;9.82;;;10.30;99.90;;;;;;5114551;27;37417;-60
2022/09/23 05:07:51;;;;;;;12.77;10.35;;;10.30;99.90;;;;;;5114957;27;37624;-59
2022/09/23 05:10:18;;;;;;;12.95;9.43;;;10.30;99.90;;;;;;5114402;27;36301;-59
2022/09/23 05:12:45;;;;;;;18.88;10.45;;;10.40;99.90;;;;;;5114788;27;37437;-58
2022/09/23 05:15:14;;;;;;;13.50;9.65;;;10.40;99.90;;;;;;5114543;27;37554;-58
2022/09/23 05:17:43;;;;;;;14.05;10.13;;;10.40;99.90;;;;;;5115722;27;38944;-59
2022/09/23 05:20:11;;;;;;;11.93;9.55;;;10.40;99.90;;;;;;5117836;27;38312;-58
2022/09/23 05:22:38;;;;;;;12.07;9.05;;;10.40;99.90;;;;;;5118429;27;36686;-58
2022/09/23 05:25:06;;;;;;;11.95;8.00;;;10.30;99.90;;;;;;5117305;27;37653;-57
2022/09/23 05:27:34;;;;;;;11.82;8.50;;;10.30;99.90;;;;;;5118460;27;38590;-59
2022/09/23 05:30:01;;;;;;;10.98;8.75;;;10.30;99.90;;;;;;5118207;27;36580;-59
2022/09/23 05:32:28;;;;;;;13.60;9.52;;;10.30;99.90;;;;;;5116801;27;36543;-60
2022/09/23 05:34:57;;;;;;;11.30;8.88;;;10.30;99.90;;;;;;5118762;27;37565;-58
2022/09/23 05:37:25;;;;;;;19.75;10.35;;;10.20;99.90;;;;;;5118259;27;38663;-58
2022/09/23 05:39:52;;;;;;;13.95;10.75;;;10.20;99.90;;;;;;5117770;27;37634;-58
2022/09/23 05:42:20;;;;;;;14.45;9.25;;;10.20;99.90;;;;;;5118402;27;35637;-58
2022/09/23 05:44:47;;;;;;;18.70;10.15;;;10.20;99.90;;;;;;5118215;27;37711;-59
2022/09/23 05:47:15;;;;;;;13.10;9.73;;;10.20;99.90;;;;;;5116042;27;38539;-58
2022/09/23 05:49:42;;;;;;;10.57;9.05;;;10.20;99.90;;;;;;5118640;27;36060;-58
2022/09/23 05:52:11;;;;;;;14.95;10.80;;;10.30;99.90;;;;;;5117451;27;37312;-58
2022/09/23 05:54:39;;;;;;;16.15;10.57;;;10.30;99.90;;;;;;5117349;27;38514;-58
2022/09/23 05:57:06;;;;;;;12.35;9.43;;;10.30;99.90;;;;;;5117901;27;38289;-58
2022/09/23 05:59:33;;;;;;;13.43;10.15;;;10.40;99.90;;;;;;5117555;27;35941;-58
2022/09/23 06:02:01;;;;;;;14.07;10.52;;;10.40;99.90;;;;;;5116130;27;36615;-59
2022/09/23 06:04:28;;;;;;;15.05;10.57;;;10.40;99.90;;;;;;5117364;27;37428;-58
2022/09/23 06:06:57;;;;;;;12.82;10.45;;;10.50;99.90;;;;;;5117721;27;36450;-59
2022/09/23 06:09:25;;;;;;;12.80;10.25;;;10.50;99.90;;;;;;5117643;27;38098;-58
2022/09/23 06:11:53;;;;;;;13.50;10.27;;;10.60;99.90;;;;;;5117052;27;36206;-59
2022/09/23 06:14:20;;;;;;;13.73;10.05;;;10.60;99.90;;;;;;5117221;27;38334;-59
2022/09/23 06:16:47;;;;;;;12.40;10.52;;;10.70;99.90;;;;;;5116859;27;38069;-59
2022/09/23 06:19:15;;;;;;;13.60;10.55;;;10.70;99.90;;;;;;5117238;27;36375;-59
2022/09/23 06:21:42;;;;;;;15.07;10.88;;;10.80;99.90;;;;;;5116807;27;37435;-59
2022/09/23 06:24:10;;;;;;;14.13;9.75;;;10.80;99.90;;;;;;5117770;27;37532;-59
2022/09/23 06:26:38;;;;;;;14.60;11.70;;;10.90;99.90;;;;;;5116543;27;37410;-59
2022/09/23 06:29:10;;;;;;;11.90;10.02;;;10.80;99.90;;;;;;5115452;27;36217;-59
2022/09/23 06:31:39;;;;;;;13.00;10.43;;;10.90;99.90;;;;;;5116978;27;35645;-59
2022/09/23 06:34:07;;;;;;;17.45;9.95;;;10.90;99.90;;;;;;5117333;27;37562;-59
2022/09/23 06:36:34;;;;;;;14.05;10.60;;;11.00;99.90;;;;;;5117404;27;38378;-59
2022/09/23 06:39:01;;;;;;;13.75;10.38;;;11.00;99.90;;;;;;5117663;27;37182;-59
2022/09/23 06:41:29;;;;;;;13.13;10.10;;;11.00;99.90;;;;;;5117072;27;35749;-59
2022/09/23 06:43:58;;;;;;;14.55;10.73;;;11.10;99.90;;;;;;5116377;27;38930;-59
2022/09/23 06:46:25;;;;;;;17.50;11.05;;;11.10;99.90;;;;;;5116110;27;37683;-59
2022/09/23 06:48:52;;;;;;;17.80;11.13;;;11.20;99.90;;;;;;5116681;27;38159;-59
2022/09/23 06:51:20;;;;;;;12.48;10.38;;;11.10;99.90;;;;;;5115972;27;35644;-59
2022/09/23 06:53:48;;;;;;;16.77;10.40;;;11.30;99.90;;;;;;5116607;27;37990;-59
2022/09/23 06:56:18;;;;;;;12.70;10.38;;;11.30;99.90;;;;;;5117026;27;37657;-59
2022/09/23 06:58:45;;;;;;;13.45;10.07;;;11.30;99.90;;;;;;5115762;27;38165;-60
2022/09/23 07:01:16;;;;;;;15.38;11.45;;;11.40;99.90;;;;;;5118182;27;37579;-60
2022/09/23 07:03:44;;;;;;;14.40;11.05;;;11.40;99.90;;;;;;5116150;27;37408;-59
2022/09/23 07:06:12;;;;;;;14.57;11.52;;;11.40;99.90;;;;;;5117184;27;37887;-58
2022/09/23 07:08:43;;;;;;;14.93;11.45;;;11.40;99.90;;;;;;5116739;27;37214;-58
2022/09/23 07:11:11;;;;;;;14.75;11.82;;;11.40;99.90;;;;;;5116560;27;37446;-58
2022/09/23 07:13:40;;;;;;;14.45;10.80;;;11.50;99.90;;;;;;5116106;27;36189;-59
2022/09/23 07:16:09;;;;;;;14.18;11.32;;;11.50;99.90;;;;;;5116038;27;37433;-59
2022/09/23 07:18:39;;;;;;;14.30;10.85;;;11.50;99.90;;;;;;5116696;27;38143;-59
2022/09/23 07:21:08;;;;;;;14.60;10.63;;;11.60;99.90;;;;;;5116442;27;37959;-59
2022/09/23 07:23:37;;;;;;;16.70;10.43;;;11.60;99.90;;;;;;5116156;27;36213;-59
2022/09/23 07:26:06;;;;;;;13.10;10.68;;;11.60;99.90;;;;;;5116023;27;37601;-59
2022/09/23 07:28:35;;;;;;;12.63;10.25;;;11.60;99.90;;;;;;5116673;27;38321;-59
2022/09/23 07:31:05;;;;;;;13.82;10.70;;;11.70;99.90;;;;;;5115584;27;36979;-59
2022/09/23 07:33:33;;;;;;;14.50;9.88;;;11.70;99.90;;;;;;5116120;27;37345;-59
2022/09/23 07:36:07;;;;;;;14.57;11.70;;;11.70;99.90;;;;;;5115714;27;38186;-58
2022/09/23 07:38:34;;;;;;;;;;;11.70;99.90;;;;;;5116923;27;37818;-59
2022/09/23 07:41:03;;;;;;;13.63;10.25;;;11.70;99.90;;;;;;5116583;27;36792;-59
2022/09/23 07:43:31;;;;;;;14.25;10.98;;;11.80;99.90;;;;;;5116588;27;38030;-58
2022/09/23 07:46:01;;;;;;;16.27;10.00;;;11.90;99.90;;;;;;5115409;27;36902;-59
2022/09/23 07:48:29;;;;;;;12.55;10.82;;;11.90;99.90;;;;;;5115472;27;38879;-60
2022/09/23 07:50:58;;;;;;;13.20;11.18;;;12.00;99.90;;;;;;5115969;27;37874;-59
2022/09/23 07:53:27;;;;;;;14.80;10.68;;;12.00;99.90;;;;;;5115824;27;37518;-59
2022/09/23 07:55:55;;;;;;;13.20;9.55;;;12.10;99.90;;;;;;5113608;27;38665;-59
2022/09/23 07:58:23;;;;;;;16.20;11.13;;;12.10;99.90;;;;;;5113665;27;37406;-58
2022/09/23 08:00:52;;;;;;;15.25;11.57;;;12.20;99.90;;;;;;5114675;27;38385;-58
2022/09/23 08:03:20;;;;;;;14.27;11.63;;;12.20;99.90;;;;;;5113909;27;38828;-58
2022/09/23 08:05:48;;;;;;;18.10;11.40;;;12.20;99.90;;;;;;5114062;27;37908;-59
2022/09/23 08:08:16;;;;;;;12.68;10.63;;;12.30;99.90;;;;;;5114858;27;36273;-58
2022/09/23 08:10:44;;;;;;;14.43;10.95;;;12.30;99.90;;;;;;5114662;27;37269;-59
2022/09/23 08:13:12;;;;;;;14.73;11.27;;;12.30;99.90;;;;;;5115056;27;36609;-58
2022/09/23 08:15:42;;;;;;;12.43;10.73;;;12.30;99.90;;;;;;5114450;27;39246;-59
2022/09/23 08:18:10;;;;;;;14.38;11.35;;;12.40;99.90;;;;;;5114071;27;37837;-58
2022/09/23 08:20:46;;;;;;;13.13;10.52;;;12.40;99.90;;;;;;5114322;27;35496;-58
2022/09/23 08:23:14;;;;;;;19.50;11.10;;;12.30;99.90;;;;;;5113410;27;38334;-58
2022/09/23 08:25:44;;;;;;;13.07;10.20;;;12.40;99.90;;;;;;5113872;27;37983;-58
2022/09/23 08:28:14;;;;;;;11.70;9.23;;;12.40;99.90;;;;;;5113395;27;37576;-58
2022/09/23 08:30:42;;;;;;;17.85;11.02;;;12.50;99.90;;;;;;5113132;27;37724;-59
2022/09/23 08:33:10;;;;;;;15.68;10.65;;;12.50;99.90;;;;;;5112526;27;38482;-58
2022/09/23 08:35:38;;;;;;;12.63;10.50;;;12.60;99.90;;;;;;5114379;27;36474;-59
2022/09/23 08:38:05;;;;;;;13.27;10.13;;;12.60;99.90;;;;;;5113339;27;37439;-58
2022/09/23 08:40:35;;;;;;;13.55;10.00;;;12.60;99.90;;;;;;5114219;27;36746;-58
2022/09/23 08:43:05;;;;;;;11.88;9.95;;;12.70;99.90;;;;;;5114395;27;38566;-58
2022/09/23 08:45:36;;;;;;;14.25;9.98;;;12.80;99.90;;;;;;5113374;27;39168;-58
2022/09/23 08:48:08;;;;;;;15.75;10.52;;;12.90;99.90;;;;;;5113191;27;37554;-58
2022/09/23 08:50:41;;;;;;;12.13;9.98;;;12.90;99.90;;;;;;5112104;27;36954;-58
2022/09/23 08:53:19;;;;;;;14.63;9.95;;;13.00;99.90;;;;;;5113466;27;38177;-59
2022/09/23 08:55:49;;;;;;;14.05;10.20;;;13.00;99.90;;;;;;5114169;27;37516;-59
2022/09/23 08:58:39;;;;;;;11.98;9.18;;;13.00;99.90;;;;;;5112846;27;37400;-58
2022/09/23 09:01:16;;;;;;;12.48;9.55;;;13.10;99.90;;;;;;5114212;27;38050;-58
2022/09/23 09:03:48;;;;;;;12.70;9.52;;;13.10;99.90;;;;;;5109908;27;37469;-58
2022/09/23 09:06:19;;;;;;;15.45;9.82;;;13.20;99.90;;;;;;5112744;27;37483;-59
2022/09/23 09:08:57;;;;;;;17.42;9.73;;;13.20;99.90;;;;;;5112955;27;37886;-59
2022/09/23 09:11:30;;;;;;;13.02;9.80;;;13.20;99.90;;;;;;5114349;27;36343;-58
2022/09/23 09:14:05;;;;;;;11.63;8.57;;;13.30;99.90;;;;;;5113484;27;37359;-58
2022/09/23 09:16:56;;;;;;;16.05;9.77;;;13.30;99.90;;;;;;5114451;27;36933;-59
2022/09/23 09:19:51;;;;;;;18.23;9.25;;;13.40;99.90;;;;;;5113130;27;37143;-59
2022/09/23 09:22:22;;;;;;;12.95;9.18;;;13.40;99.90;;;;;;5112122;27;36515;-58
2022/09/23 09:24:50;;;;;;;12.15;8.90;;;13.40;99.90;;;;;;5112259;27;36474;-58
2022/09/23 09:27:17;;;;;;;14.82;9.20;;;13.50;99.90;;;;;;5112218;27;37377;-58
2022/09/23 09:29:48;;;;;;;11.88;9.43;;;13.50;99.90;;;;;;5112864;27;38375;-59
2022/09/23 09:32:28;;;;;;;14.07;10.05;;;13.60;99.90;;;;;;5112964;27;37042;-59
2022/09/23 09:34:59;;;;;;;14.75;9.65;;;13.60;99.90;;;;;;5112861;27;38414;-59
2022/09/23 09:37:34;;;;;;;13.02;9.13;;;13.70;99.90;;;;;;5113542;27;38673;-59
2022/09/23 09:40:02;;;;;;;11.95;8.35;;;13.70;99.90;;;;;;5112904;27;38425;-59
2022/09/23 09:42:38;;;;;;;12.68;8.68;;;13.80;99.90;;;;;;5110916;27;36413;-58
2022/09/23 09:45:18;;;;;;;11.93;9.05;;;13.80;99.90;;;;;;5112004;27;38389;-58
2022/09/23 09:47:55;;;;;;;13.18;9.30;;;13.80;99.90;;;;;;5112002;27;37587;-58
2022/09/23 09:50:42;;;;;;;10.68;8.05;;;13.80;99.90;;;;;;5113504;27;36370;-58
2022/09/23 09:53:20;;;;;;;12.73;8.57;;;13.90;99.90;;;;;;5113288;27;37223;-58
2022/09/23 09:55:58;;;;;;;15.40;8.43;;;13.90;99.90;;;;;;5112678;27;37808;-58
2022/09/23 09:58:28;;;;;;;15.27;9.75;;;14.00;99.90;;;;;;5113289;27;38401;-58
2022/09/23 10:00:57;;;;;;;15.15;8.80;;;14.00;99.90;;;;;;5113642;27;37625;-58
2022/09/23 10:03:39;;;;;;;11.10;8.25;;;14.00;99.90;;;;;;5114917;27;35444;-58
2022/09/23 10:06:19;;;;;;;15.40;8.98;;;14.00;99.90;;;;;;5116866;27;38314;-59
2022/09/23 10:09:04;;;;;;;12.93;8.10;;;14.00;99.90;;;;;;5114450;27;37631;-58
2022/09/23 10:11:32;;;;;;;11.70;7.72;;;14.00;99.90;;;;;;5114882;27;36082;-59
2022/09/23 10:14:12;;;;;;;9.77;7.35;;;14.00;99.90;;;;;;5115082;27;37374;-59
2022/09/23 10:16:41;;;;;;;11.27;7.72;;;14.00;99.90;;;;;;5115816;27;39765;-59
2022/09/23 10:19:25;;;;;;;10.70;7.35;;;14.00;99.90;;;;;;5115651;27;37538;-59
2022/09/23 10:21:58;;;;;;;12.18;7.13;;;14.10;99.90;;;;;;5116216;27;38146;-59
2022/09/23 10:24:28;;;;;;;;;;;14.10;99.90;;;;;;5115718;27;37463;-59
2022/09/23 10:27:00;;;;;;;14.07;7.93;;;14.10;99.90;;;;;;5116652;27;37876;-59
2022/09/23 10:29:31;;;;;;;11.35;7.13;;;14.20;99.90;;;;;;5116520;27;37710;-58
2022/09/23 10:32:32;;;;;;;11.23;7.28;;;14.20;99.90;;;;;;5116470;27;37703;-58
2022/09/23 10:35:14;;;;;;;13.20;7.90;;;14.20;99.90;;;;;;5070119;28;38190;-59
2022/09/23 10:37:44;;;;;;;12.30;7.85;;;14.20;99.90;;;;;;5111269;27;37503;-59
2022/09/23 10:49:37;;;;;;;10.88;7.72;;;14.30;99.90;;;;;;5081731;27;38132;-59
2022/09/23 10:52:22;;;;;;;12.70;7.72;;;14.40;99.90;;;;;;5116516;27;37954;-59
2022/09/23 10:55:01;;;;;;;11.95;8.27;;;14.40;99.90;;;;;;5116199;27;36456;-59
2022/09/23 10:57:42;;;;;;;12.98;8.30;;;14.50;99.90;;;;;;5116221;27;37983;-59
2022/09/23 11:00:22;;;;;;;10.43;7.80;;;14.60;99.90;;;;;;5115887;27;37444;-58
2022/09/23 11:03:29;;;;;;;13.40;8.80;;;14.60;99.90;;;;;;5112488;27;36090;-58
2022/09/23 11:06:06;;;;;;;13.30;8.07;;;14.60;99.90;;;;;;5114196;27;36242;-59
2022/09/23 11:08:56;;;;;;;14.63;8.63;;;14.70;99.90;;;;;;5115210;27;35349;-58
2022/09/23 11:11:38;;;;;;;16.55;9.05;;;14.70;99.90;;;;;;5115056;27;36317;-59
2022/09/23 11:14:24;;;;;;;14.77;9.60;;;14.80;99.90;;;;;;5113860;27;37510;-59
2022/09/23 11:17:13;;;;;;;12.52;8.52;;;14.80;99.90;;;;;;5113647;27;37272;-58
2022/09/23 11:20:04;;;;;;;14.70;8.88;;;14.90;99.90;;;;;;5115223;27;37384;-58
2022/09/23 11:22:47;;;;;;;12.82;8.73;;;14.90;99.90;;;;;;5115470;27;37811;-58
2022/09/23 11:25:29;;;;;;;13.07;8.45;;;14.90;99.90;;;;;;5115301;27;38009;-59
2022/09/23 11:28:30;;;;;;;14.43;9.20;;;14.90;99.90;;;;;;5115137;27;38483;-58
2022/09/23 11:31:06;;;;;;;12.10;9.75;;;14.90;99.90;;;;;;5113691;27;37254;-58
2022/09/23 11:33:46;;;;;;;15.02;9.95;;;14.90;99.90;;;;;;5115075;27;36555;-58
2022/09/23 11:36:24;;;;;;;12.90;9.43;;;14.90;99.90;;;;;;5115266;27;37782;-59
2022/09/23 11:38:54;;;;;;;13.15;9.02;;;14.90;99.90;;;;;;5115583;27;36379;-59
2022/09/23 11:41:26;;;;;;;13.82;9.35;;;14.90;99.90;;;;;;5115304;27;37414;-59
2022/09/23 11:44:03;;;;;;;12.60;10.05;;;14.90;99.90;;;;;;5115254;27;38389;-58
2022/09/23 11:46:39;;;;;;;10.73;8.57;;;14.90;99.90;;;;;;5113252;27;38392;-58
2022/09/23 11:49:13;;;;;;;13.80;10.20;;;14.90;99.90;;;;;;5114608;27;38192;-59
2022/09/23 11:51:44;;;;;;;12.93;10.05;;;14.90;99.90;;;;;;5110802;27;37751;-59
2022/09/23 11:54:19;;;;;;;14.45;9.80;;;15.00;99.90;;;;;;5112340;27;38097;-59
2022/09/23 11:56:53;;;;;;;18.38;10.68;;;15.00;99.90;;;;;;5113652;27;38096;-59
2022/09/23 11:59:31;;;;;;;15.13;10.25;;;15.00;99.90;;;;;;5114016;27;38350;-59
2022/09/23 12:02:05;;;;;;;15.75;10.90;;;15.00;99.90;;;;;;5112903;27;36789;-59
2022/09/23 12:04:36;;;;;;;13.77;9.45;;;15.10;99.90;;;;;;5112075;27;38604;-59
2022/09/23 12:07:10;;;;;;;17.38;10.95;;;15.00;99.90;;;;;;5113517;27;37771;-59
2022/09/23 12:09:43;;;;;;;14.90;11.13;;;15.10;99.90;;;;;;5114279;27;37182;-59
2022/09/23 12:12:19;;;;;;;15.25;11.20;;;15.10;99.90;;;;;;5114646;27;36753;-59
2022/09/23 12:14:57;;;;;;;13.65;10.50;;;15.10;99.90;;;;;;5113442;27;37524;-59
2022/09/23 12:17:47;;;;;;;14.32;11.13;;;15.10;99.90;;;;;;5114548;27;38719;-59
2022/09/23 12:20:30;;;;;;;14.98;10.98;;;15.10;99.90;;;;;;5114583;27;37435;-60
2022/09/23 12:23:12;;;;;;;13.85;10.55;;;15.10;99.90;;;;;;5112905;27;35456;-59
2022/09/23 12:25:45;;;;;;;16.55;11.98;;;15.10;99.90;;;;;;5113849;27;37781;-59
2022/09/23 12:28:17;;;;;;;22.48;12.65;;;15.10;99.90;;;;;;5114924;27;37880;-59
2022/09/23 12:30:46;;;;;;;14.98;11.43;;;15.10;99.90;;;;;;5114962;27;36281;-59
2022/09/23 12:33:23;;;;;;;17.55;12.38;;;15.10;99.90;;;;;;5114328;27;36373;-60
2022/09/23 12:35:53;;;;;;;16.40;11.75;;;15.10;99.90;;;;;;5113765;27;37586;-59
2022/09/23 12:38:25;;;;;;;16.05;12.40;;;15.20;99.90;;;;;;5114762;27;37759;-59
2022/09/23 12:40:54;;;;;;;15.93;12.07;;;15.20;99.90;;;;;;5114649;27;37273;-59
2022/09/23 12:43:30;;;;;;;18.92;13.23;;;15.20;99.90;;;;;;5113832;27;35296;-59
2022/09/23 12:46:20;;;;;;;16.23;12.18;;;15.20;99.90;;;;;;5114142;27;37428;-59
2022/09/23 12:48:59;;;;;;;16.42;12.68;;;15.20;99.90;;;;;;5094741;27;39155;-59
2022/09/23 12:51:27;;;;;;;18.67;12.60;;;15.20;99.90;;;;;;5093788;27;37155;-59
2022/09/23 12:54:22;;;;;;;16.08;12.05;;;15.20;99.90;;;;;;5094761;27;36917;-59
2022/09/23 12:57:04;;;;;;;15.98;12.27;;;15.30;99.90;;;;;;5093648;27;37169;-60
2022/09/23 12:59:54;;;;;;;17.30;12.63;;;15.30;99.90;;;;;;5093757;27;37014;-60
2022/09/23 13:02:27;;;;;;;22.10;13.25;;;15.30;99.90;;;;;;5094102;27;37162;-59
2022/09/23 13:07:49;;;;;;;17.40;12.30;;;15.30;99.90;;;;;;5094497;27;38497;-59
2022/09/23 13:10:23;;;;;;;16.35;12.25;;;15.30;99.90;;;;;;5093963;27;37556;-59
2022/09/23 13:12:52;;;;;;;15.98;12.77;;;15.30;99.90;;;;;;5094422;27;37691;-59
2022/09/23 13:15:28;;;;;;;17.63;13.15;;;15.20;99.90;;;;;;5093334;27;36692;-59
2022/09/23 13:18:37;;;;;;;19.98;13.38;;;15.20;99.90;;;;;;5091399;27;38194;-59